sensor_id;sensor_type;location;lat;lon;timestamp;P1;durP1;ratioP1;P2;durP2;ratioP2
10902;SDS011;5504;47.312;11.060;2024-02-23T00:00:10;0.97;;;0.80;;
10902;SDS011;5504;47.312;11.060;2024-02-23T00:02:37;0.93;;;0.83;;
10902;SDS011;5504;47.312;11.060;2024-02-23T00:05:03;1.70;;;1.00;;
10902;SDS011;5504;47.312;11.060;2024-02-23T00:07:29;1.07;;;1.00;;
10902;SDS011;5504;47.312;11.060;2024-02-23T00:09:55;1.27;;;0.90;;
10902;SDS011;5504;47.312;11.060;2024-02-23T00:12:21;1.47;;;0.90;;
10902;SDS011;5504;47.312;11.060;2024-02-23T00:14:46;1.80;;;0.77;;
10902;SDS011;5504;47.312;11.060;2024-02-23T00:17:13;0.97;;;0.77;;
10902;SDS011;5504;47.312;11.060;2024-02-23T00:19:38;0.90;;;0.90;;
10902;SDS011;5504;47.312;11.060;2024-02-23T00:22:04;1.20;;;0.80;;
10902;SDS011;5504;47.312;11.060;2024-02-23T00:24:30;0.77;;;0.73;;
10902;SDS011;5504;47.312;11.060;2024-02-23T00:26:56;0.73;;;0.73;;
10902;SDS011;5504;47.312;11.060;2024-02-23T00:29:22;0.80;;;0.80;;
10902;SDS011;5504;47.312;11.060;2024-02-23T00:31:48;1.00;;;0.83;;
10902;SDS011;5504;47.312;11.060;2024-02-23T00:34:14;1.37;;;1.00;;
10902;SDS011;5504;47.312;11.060;2024-02-23T00:36:41;0.80;;;0.80;;
10902;SDS011;5504;47.312;11.060;2024-02-23T00:39:07;0.77;;;0.77;;
10902;SDS011;5504;47.312;11.060;2024-02-23T00:41:33;1.00;;;0.80;;
10902;SDS011;5504;47.312;11.060;2024-02-23T00:44:00;0.90;;;0.90;;
10902;SDS011;5504;47.312;11.060;2024-02-23T00:46:26;0.80;;;0.80;;
10902;SDS011;5504;47.312;11.060;2024-02-23T00:48:52;0.90;;;0.70;;
10902;SDS011;5504;47.312;11.060;2024-02-23T00:51:17;0.77;;;0.77;;
10902;SDS011;5504;47.312;11.060;2024-02-23T00:53:43;1.10;;;0.77;;
10902;SDS011;5504;47.312;11.060;2024-02-23T00:56:09;0.73;;;0.73;;
10902;SDS011;5504;47.312;11.060;2024-02-23T00:58:34;0.80;;;0.80;;
10902;SDS011;5504;47.312;11.060;2024-02-23T01:01:00;0.90;;;0.80;;
10902;SDS011;5504;47.312;11.060;2024-02-23T01:03:26;1.20;;;0.90;;
10902;SDS011;5504;47.312;11.060;2024-02-23T01:05:52;0.70;;;0.70;;
10902;SDS011;5504;47.312;11.060;2024-02-23T01:08:17;0.93;;;0.93;;
10902;SDS011;5504;47.312;11.060;2024-02-23T01:10:44;1.40;;;0.70;;
10902;SDS011;5504;47.312;11.060;2024-02-23T01:13:10;1.23;;;0.90;;
10902;SDS011;5504;47.312;11.060;2024-02-23T01:15:36;1.00;;;0.90;;
10902;SDS011;5504;47.312;11.060;2024-02-23T01:18:03;1.10;;;1.00;;
10902;SDS011;5504;47.312;11.060;2024-02-23T01:20:30;0.77;;;0.77;;
10902;SDS011;5504;47.312;11.060;2024-02-23T01:22:56;1.17;;;1.00;;
10902;SDS011;5504;47.312;11.060;2024-02-23T01:25:22;1.00;;;0.90;;
10902;SDS011;5504;47.312;11.060;2024-02-23T01:27:48;1.23;;;1.10;;
10902;SDS011;5504;47.312;11.060;2024-02-23T01:30:14;1.07;;;0.80;;
10902;SDS011;5504;47.312;11.060;2024-02-23T01:32:39;0.80;;;0.70;;
10902;SDS011;5504;47.312;11.060;2024-02-23T01:35:05;1.03;;;0.70;;
10902;SDS011;5504;47.312;11.060;2024-02-23T01:37:33;1.07;;;0.80;;
10902;SDS011;5504;47.312;11.060;2024-02-23T01:39:59;0.80;;;0.70;;
10902;SDS011;5504;47.312;11.060;2024-02-23T01:42:25;0.70;;;0.70;;
10902;SDS011;5504;47.312;11.060;2024-02-23T01:44:51;1.30;;;0.80;;
10902;SDS011;5504;47.312;11.060;2024-02-23T01:47:17;0.60;;;0.60;;
10902;SDS011;5504;47.312;11.060;2024-02-23T01:49:44;0.83;;;0.50;;
10902;SDS011;5504;47.312;11.060;2024-02-23T01:52:11;0.30;;;0.30;;
10902;SDS011;5504;47.312;11.060;2024-02-23T01:54:39;1.17;;;0.60;;
10902;SDS011;5504;47.312;11.060;2024-02-23T01:57:05;0.50;;;0.50;;
10902;SDS011;5504;47.312;11.060;2024-02-23T01:59:34;0.73;;;0.53;;
10902;SDS011;5504;47.312;11.060;2024-02-23T02:02:03;0.70;;;0.50;;
10902;SDS011;5504;47.312;11.060;2024-02-23T02:04:29;0.70;;;0.50;;
10902;SDS011;5504;47.312;11.060;2024-02-23T02:06:55;0.73;;;0.60;;
10902;SDS011;5504;47.312;11.060;2024-02-23T02:09:26;0.53;;;0.53;;
10902;SDS011;5504;47.312;11.060;2024-02-23T02:11:52;0.60;;;0.57;;
10902;SDS011;5504;47.312;11.060;2024-02-23T02:14:18;0.60;;;0.60;;
10902;SDS011;5504;47.312;11.060;2024-02-23T02:16:44;0.80;;;0.53;;
10902;SDS011;5504;47.312;11.060;2024-02-23T02:19:10;0.40;;;0.40;;
10902;SDS011;5504;47.312;11.060;2024-02-23T02:21:36;0.80;;;0.70;;
10902;SDS011;5504;47.312;11.060;2024-02-23T02:24:02;2.00;;;0.70;;
10902;SDS011;5504;47.312;11.060;2024-02-23T02:26:29;1.53;;;0.80;;
10902;SDS011;5504;47.312;11.060;2024-02-23T02:28:57;1.90;;;0.63;;
10902;SDS011;5504;47.312;11.060;2024-02-23T02:31:23;1.67;;;0.80;;
10902;SDS011;5504;47.312;11.060;2024-02-23T02:33:49;0.57;;;0.40;;
10902;SDS011;5504;47.312;11.060;2024-02-23T02:36:15;0.37;;;0.30;;
10902;SDS011;5504;47.312;11.060;2024-02-23T02:38:40;0.43;;;0.40;;
10902;SDS011;5504;47.312;11.060;2024-02-23T02:41:06;0.70;;;0.30;;
10902;SDS011;5504;47.312;11.060;2024-02-23T02:43:32;4.27;;;0.67;;
10902;SDS011;5504;47.312;11.060;2024-02-23T02:45:58;1.47;;;0.40;;
10902;SDS011;5504;47.312;11.060;2024-02-23T02:48:24;0.90;;;0.40;;
10902;SDS011;5504;47.312;11.060;2024-02-23T02:50:50;0.93;;;0.50;;
10902;SDS011;5504;47.312;11.060;2024-02-23T02:53:16;0.53;;;0.50;;
10902;SDS011;5504;47.312;11.060;2024-02-23T02:55:43;1.40;;;0.53;;
10902;SDS011;5504;47.312;11.060;2024-02-23T02:58:11;1.77;;;0.47;;
10902;SDS011;5504;47.312;11.060;2024-02-23T03:00:37;2.10;;;0.40;;
10902;SDS011;5504;47.312;11.060;2024-02-23T03:03:03;0.93;;;0.30;;
10902;SDS011;5504;47.312;11.060;2024-02-23T03:05:29;0.40;;;0.30;;
10902;SDS011;5504;47.312;11.060;2024-02-23T03:07:55;0.40;;;0.40;;
10902;SDS011;5504;47.312;11.060;2024-02-23T03:10:21;1.07;;;0.30;;
10902;SDS011;5504;47.312;11.060;2024-02-23T03:12:47;1.70;;;0.40;;
10902;SDS011;5504;47.312;11.060;2024-02-23T03:15:12;0.33;;;0.33;;
10902;SDS011;5504;47.312;11.060;2024-02-23T03:17:38;0.20;;;0.20;;
10902;SDS011;5504;47.312;11.060;2024-02-23T03:20:04;2.33;;;0.37;;
10902;SDS011;5504;47.312;11.060;2024-02-23T03:22:34;0.30;;;0.30;;
10902;SDS011;5504;47.312;11.060;2024-02-23T03:25:03;0.50;;;0.30;;
10902;SDS011;5504;47.312;11.060;2024-02-23T03:27:33;0.33;;;0.30;;
10902;SDS011;5504;47.312;11.060;2024-02-23T03:30:01;0.47;;;0.40;;
10902;SDS011;5504;47.312;11.060;2024-02-23T03:32:28;0.30;;;0.30;;
10902;SDS011;5504;47.312;11.060;2024-02-23T03:34:53;1.00;;;0.20;;
10902;SDS011;5504;47.312;11.060;2024-02-23T03:37:19;0.30;;;0.20;;
10902;SDS011;5504;47.312;11.060;2024-02-23T03:39:45;0.30;;;0.10;;
10902;SDS011;5504;47.312;11.060;2024-02-23T03:42:13;0.47;;;0.20;;
10902;SDS011;5504;47.312;11.060;2024-02-23T03:44:39;0.30;;;0.20;;
10902;SDS011;5504;47.312;11.060;2024-02-23T03:47:06;0.40;;;0.20;;
10902;SDS011;5504;47.312;11.060;2024-02-23T03:49:32;0.20;;;0.20;;
10902;SDS011;5504;47.312;11.060;2024-02-23T03:51:58;0.73;;;0.40;;
10902;SDS011;5504;47.312;11.060;2024-02-23T03:54:24;0.93;;;0.20;;
10902;SDS011;5504;47.312;11.060;2024-02-23T03:56:49;0.47;;;0.20;;
10902;SDS011;5504;47.312;11.060;2024-02-23T03:59:15;0.47;;;0.20;;
10902;SDS011;5504;47.312;11.060;2024-02-23T04:01:41;0.33;;;0.30;;
10902;SDS011;5504;47.312;11.060;2024-02-23T04:04:07;0.80;;;0.30;;
10902;SDS011;5504;47.312;11.060;2024-02-23T04:06:33;0.40;;;0.40;;
10902;SDS011;5504;47.312;11.060;2024-02-23T04:08:59;0.77;;;0.30;;
10902;SDS011;5504;47.312;11.060;2024-02-23T04:11:25;0.43;;;0.40;;
10902;SDS011;5504;47.312;11.060;2024-02-23T04:13:51;0.50;;;0.30;;
10902;SDS011;5504;47.312;11.060;2024-02-23T04:16:16;0.37;;;0.37;;
10902;SDS011;5504;47.312;11.060;2024-02-23T04:18:42;0.10;;;0.10;;
10902;SDS011;5504;47.312;11.060;2024-02-23T04:21:08;0.60;;;0.20;;
10902;SDS011;5504;47.312;11.060;2024-02-23T04:23:34;0.40;;;0.20;;
10902;SDS011;5504;47.312;11.060;2024-02-23T04:25:59;0.67;;;0.27;;
10902;SDS011;5504;47.312;11.060;2024-02-23T04:28:25;0.30;;;0.10;;
10902;SDS011;5504;47.312;11.060;2024-02-23T04:30:55;0.20;;;0.20;;
10902;SDS011;5504;47.312;11.060;2024-02-23T04:33:21;0.83;;;0.20;;
10902;SDS011;5504;47.312;11.060;2024-02-23T04:35:47;0.77;;;0.27;;
10902;SDS011;5504;47.312;11.060;2024-02-23T04:38:13;0.40;;;0.30;;
10902;SDS011;5504;47.312;11.060;2024-02-23T04:40:39;1.03;;;0.50;;
10902;SDS011;5504;47.312;11.060;2024-02-23T04:43:04;1.00;;;0.30;;
10902;SDS011;5504;47.312;11.060;2024-02-23T04:45:30;0.67;;;0.40;;
10902;SDS011;5504;47.312;11.060;2024-02-23T04:47:56;0.63;;;0.30;;
10902;SDS011;5504;47.312;11.060;2024-02-23T04:50:22;0.80;;;0.40;;
10902;SDS011;5504;47.312;11.060;2024-02-23T04:52:48;0.43;;;0.40;;
10902;SDS011;5504;47.312;11.060;2024-02-23T04:55:15;0.20;;;0.20;;
10902;SDS011;5504;47.312;11.060;2024-02-23T04:57:41;1.40;;;0.40;;
10902;SDS011;5504;47.312;11.060;2024-02-23T05:00:06;1.17;;;0.50;;
10902;SDS011;5504;47.312;11.060;2024-02-23T05:02:33;1.00;;;0.50;;
10902;SDS011;5504;47.312;11.060;2024-02-23T05:05:03;0.80;;;0.50;;
10902;SDS011;5504;47.312;11.060;2024-02-23T05:07:32;0.80;;;0.57;;
10902;SDS011;5504;47.312;11.060;2024-02-23T05:09:59;0.73;;;0.53;;
10902;SDS011;5504;47.312;11.060;2024-02-23T05:12:25;0.73;;;0.50;;
10902;SDS011;5504;47.312;11.060;2024-02-23T05:14:51;0.70;;;0.57;;
10902;SDS011;5504;47.312;11.060;2024-02-23T05:17:17;1.27;;;0.67;;
10902;SDS011;5504;47.312;11.060;2024-02-23T05:19:42;0.87;;;0.50;;
10902;SDS011;5504;47.312;11.060;2024-02-23T05:22:09;0.60;;;0.60;;
10902;SDS011;5504;47.312;11.060;2024-02-23T05:24:34;1.67;;;0.73;;
10902;SDS011;5504;47.312;11.060;2024-02-23T05:27:00;1.17;;;0.60;;
10902;SDS011;5504;47.312;11.060;2024-02-23T05:29:29;0.37;;;0.30;;
10902;SDS011;5504;47.312;11.060;2024-02-23T05:31:55;1.17;;;0.37;;
10902;SDS011;5504;47.312;11.060;2024-02-23T05:34:21;0.20;;;0.20;;
10902;SDS011;5504;47.312;11.060;2024-02-23T05:36:47;0.27;;;0.20;;
10902;SDS011;5504;47.312;11.060;2024-02-23T05:39:13;0.53;;;0.30;;
10902;SDS011;5504;47.312;11.060;2024-02-23T05:41:40;0.30;;;0.30;;
10902;SDS011;5504;47.312;11.060;2024-02-23T05:44:09;0.40;;;0.40;;
10902;SDS011;5504;47.312;11.060;2024-02-23T05:46:35;1.10;;;0.80;;
10902;SDS011;5504;47.312;11.060;2024-02-23T05:49:01;1.50;;;0.60;;
10902;SDS011;5504;47.312;11.060;2024-02-23T05:51:29;2.20;;;0.60;;
10902;SDS011;5504;47.312;11.060;2024-02-23T05:53:55;0.50;;;0.40;;
10902;SDS011;5504;47.312;11.060;2024-02-23T05:56:22;0.30;;;0.30;;
10902;SDS011;5504;47.312;11.060;2024-02-23T05:58:49;1.80;;;0.30;;
10902;SDS011;5504;47.312;11.060;2024-02-23T06:01:16;0.30;;;0.30;;
10902;SDS011;5504;47.312;11.060;2024-02-23T06:03:45;0.50;;;0.50;;
10902;SDS011;5504;47.312;11.060;2024-02-23T06:06:11;0.53;;;0.43;;
10902;SDS011;5504;47.312;11.060;2024-02-23T06:08:37;0.77;;;0.40;;
10902;SDS011;5504;47.312;11.060;2024-02-23T06:11:03;0.40;;;0.40;;
10902;SDS011;5504;47.312;11.060;2024-02-23T06:13:29;0.30;;;0.30;;
10902;SDS011;5504;47.312;11.060;2024-02-23T06:15:55;0.30;;;0.30;;
10902;SDS011;5504;47.312;11.060;2024-02-23T06:18:21;0.30;;;0.30;;
10902;SDS011;5504;47.312;11.060;2024-02-23T06:20:48;0.47;;;0.40;;
10902;SDS011;5504;47.312;11.060;2024-02-23T06:23:16;1.37;;;0.60;;
10902;SDS011;5504;47.312;11.060;2024-02-23T06:25:42;1.27;;;0.60;;
10902;SDS011;5504;47.312;11.060;2024-02-23T06:28:11;0.80;;;0.43;;
10902;SDS011;5504;47.312;11.060;2024-02-23T06:30:37;1.10;;;0.30;;
10902;SDS011;5504;47.312;11.060;2024-02-23T06:33:02;0.40;;;0.40;;
10902;SDS011;5504;47.312;11.060;2024-02-23T06:35:29;1.43;;;0.30;;
10902;SDS011;5504;47.312;11.060;2024-02-23T06:37:56;0.30;;;0.30;;
10902;SDS011;5504;47.312;11.060;2024-02-23T06:40:21;0.43;;;0.20;;
10902;SDS011;5504;47.312;11.060;2024-02-23T06:42:47;0.20;;;0.20;;
10902;SDS011;5504;47.312;11.060;2024-02-23T06:45:13;1.13;;;0.40;;
10902;SDS011;5504;47.312;11.060;2024-02-23T06:47:39;0.20;;;0.20;;
10902;SDS011;5504;47.312;11.060;2024-02-23T06:50:05;0.30;;;0.30;;
10902;SDS011;5504;47.312;11.060;2024-02-23T06:52:31;0.20;;;0.20;;
10902;SDS011;5504;47.312;11.060;2024-02-23T06:54:58;2.57;;;0.37;;
10902;SDS011;5504;47.312;11.060;2024-02-23T06:57:24;0.30;;;0.30;;
10902;SDS011;5504;47.312;11.060;2024-02-23T06:59:51;0.93;;;0.40;;
10902;SDS011;5504;47.312;11.060;2024-02-23T07:02:17;0.53;;;0.53;;
10902;SDS011;5504;47.312;11.060;2024-02-23T07:04:43;1.00;;;0.80;;
10902;SDS011;5504;47.312;11.060;2024-02-23T07:07:08;0.60;;;0.50;;
10902;SDS011;5504;47.312;11.060;2024-02-23T07:09:36;0.53;;;0.43;;
10902;SDS011;5504;47.312;11.060;2024-02-23T07:12:02;0.30;;;0.30;;
10902;SDS011;5504;47.312;11.060;2024-02-23T07:14:28;0.63;;;0.40;;
10902;SDS011;5504;47.312;11.060;2024-02-23T07:16:54;0.40;;;0.40;;
10902;SDS011;5504;47.312;11.060;2024-02-23T07:19:20;0.60;;;0.60;;
10902;SDS011;5504;47.312;11.060;2024-02-23T07:21:46;1.70;;;0.50;;
10902;SDS011;5504;47.312;11.060;2024-02-23T07:24:13;0.50;;;0.40;;
10902;SDS011;5504;47.312;11.060;2024-02-23T07:26:39;0.50;;;0.50;;
10902;SDS011;5504;47.312;11.060;2024-02-23T07:29:05;0.90;;;0.60;;
10902;SDS011;5504;47.312;11.060;2024-02-23T07:31:32;0.70;;;0.70;;
10902;SDS011;5504;47.312;11.060;2024-02-23T07:33:58;0.50;;;0.50;;
10902;SDS011;5504;47.312;11.060;2024-02-23T07:36:23;0.53;;;0.50;;
10902;SDS011;5504;47.312;11.060;2024-02-23T07:38:49;0.70;;;0.63;;
10902;SDS011;5504;47.312;11.060;2024-02-23T07:41:15;1.50;;;0.70;;
10902;SDS011;5504;47.312;11.060;2024-02-23T07:43:43;0.90;;;0.50;;
10902;SDS011;5504;47.312;11.060;2024-02-23T07:46:09;1.00;;;0.53;;
10902;SDS011;5504;47.312;11.060;2024-02-23T07:48:35;1.23;;;0.77;;
10902;SDS011;5504;47.312;11.060;2024-02-23T07:51:01;0.70;;;0.70;;
10902;SDS011;5504;47.312;11.060;2024-02-23T07:53:28;1.17;;;0.80;;
10902;SDS011;5504;47.312;11.060;2024-02-23T07:55:54;1.80;;;1.17;;
10902;SDS011;5504;47.312;11.060;2024-02-23T07:58:19;1.50;;;1.30;;
10902;SDS011;5504;47.312;11.060;2024-02-23T08:00:46;2.10;;;1.80;;
10902;SDS011;5504;47.312;11.060;2024-02-23T08:03:12;1.70;;;1.60;;
10902;SDS011;5504;47.312;11.060;2024-02-23T08:05:38;1.80;;;1.70;;
10902;SDS011;5504;47.312;11.060;2024-02-23T08:08:03;2.00;;;1.60;;
10902;SDS011;5504;47.312;11.060;2024-02-23T08:10:31;1.90;;;1.70;;
10902;SDS011;5504;47.312;11.060;2024-02-23T08:12:59;2.47;;;1.67;;
10902;SDS011;5504;47.312;11.060;2024-02-23T08:15:25;2.03;;;1.77;;
10902;SDS011;5504;47.312;11.060;2024-02-23T08:17:51;2.10;;;1.90;;
10902;SDS011;5504;47.312;11.060;2024-02-23T08:20:16;2.20;;;2.00;;
10902;SDS011;5504;47.312;11.060;2024-02-23T08:22:42;2.90;;;2.40;;
10902;SDS011;5504;47.312;11.060;2024-02-23T08:25:08;2.00;;;1.80;;
10902;SDS011;5504;47.312;11.060;2024-02-23T08:27:34;1.63;;;1.53;;
10902;SDS011;5504;47.312;11.060;2024-02-23T08:30:00;2.10;;;1.63;;
10902;SDS011;5504;47.312;11.060;2024-02-23T08:32:25;1.40;;;1.30;;
10902;SDS011;5504;47.312;11.060;2024-02-23T08:34:51;1.33;;;1.23;;
10902;SDS011;5504;47.312;11.060;2024-02-23T08:37:24;1.40;;;1.30;;
10902;SDS011;5504;47.312;11.060;2024-02-23T08:39:51;2.30;;;1.90;;
10902;SDS011;5504;47.312;11.060;2024-02-23T08:42:17;1.93;;;1.80;;
10902;SDS011;5504;47.312;11.060;2024-02-23T08:44:43;1.80;;;1.70;;
10902;SDS011;5504;47.312;11.060;2024-02-23T08:47:08;1.67;;;1.57;;
10902;SDS011;5504;47.312;11.060;2024-02-23T08:49:34;1.30;;;1.20;;
10902;SDS011;5504;47.312;11.060;2024-02-23T08:52:00;1.60;;;1.50;;
10902;SDS011;5504;47.312;11.060;2024-02-23T08:54:27;1.67;;;1.30;;
10902;SDS011;5504;47.312;11.060;2024-02-23T08:56:53;1.83;;;1.70;;
10902;SDS011;5504;47.312;11.060;2024-02-23T08:59:18;2.00;;;1.83;;
10902;SDS011;5504;47.312;11.060;2024-02-23T09:01:44;1.70;;;1.60;;
10902;SDS011;5504;47.312;11.060;2024-02-23T09:04:11;2.00;;;1.90;;
10902;SDS011;5504;47.312;11.060;2024-02-23T09:06:38;2.57;;;1.93;;
10902;SDS011;5504;47.312;11.060;2024-02-23T09:09:03;2.30;;;2.00;;
10902;SDS011;5504;47.312;11.060;2024-02-23T09:11:29;2.57;;;2.37;;
10902;SDS011;5504;47.312;11.060;2024-02-23T09:13:55;3.00;;;2.40;;
10902;SDS011;5504;47.312;11.060;2024-02-23T09:16:21;2.97;;;2.57;;
10902;SDS011;5504;47.312;11.060;2024-02-23T09:18:49;2.30;;;1.97;;
10902;SDS011;5504;47.312;11.060;2024-02-23T09:21:15;1.70;;;1.60;;
10902;SDS011;5504;47.312;11.060;2024-02-23T09:23:41;1.90;;;1.77;;
10902;SDS011;5504;47.312;11.060;2024-02-23T09:26:10;2.07;;;1.90;;
10902;SDS011;5504;47.312;11.060;2024-02-23T09:28:36;2.50;;;2.30;;
10902;SDS011;5504;47.312;11.060;2024-02-23T09:31:03;2.00;;;1.80;;
10902;SDS011;5504;47.312;11.060;2024-02-23T09:33:29;1.60;;;1.50;;
10902;SDS011;5504;47.312;11.060;2024-02-23T09:35:56;2.07;;;1.77;;
10902;SDS011;5504;47.312;11.060;2024-02-23T09:38:22;2.07;;;1.90;;
10902;SDS011;5504;47.312;11.060;2024-02-23T09:40:51;1.70;;;1.60;;
10902;SDS011;5504;47.312;11.060;2024-02-23T09:43:17;2.60;;;2.20;;
10902;SDS011;5504;47.312;11.060;2024-02-23T09:45:44;3.30;;;2.90;;
10902;SDS011;5504;47.312;11.060;2024-02-23T09:48:11;2.67;;;2.43;;
10902;SDS011;5504;47.312;11.060;2024-02-23T09:50:40;2.97;;;2.30;;
10902;SDS011;5504;47.312;11.060;2024-02-23T09:53:07;2.60;;;2.40;;
10902;SDS011;5504;47.312;11.060;2024-02-23T09:55:35;2.33;;;2.10;;
10902;SDS011;5504;47.312;11.060;2024-02-23T09:58:01;2.80;;;2.40;;
10902;SDS011;5504;47.312;11.060;2024-02-23T10:00:28;3.10;;;2.50;;
10902;SDS011;5504;47.312;11.060;2024-02-23T10:02:55;2.67;;;2.40;;
10902;SDS011;5504;47.312;11.060;2024-02-23T10:05:23;2.50;;;2.27;;
10902;SDS011;5504;47.312;11.060;2024-02-23T10:07:54;3.70;;;2.90;;
10902;SDS011;5504;47.312;11.060;2024-02-23T10:10:29;5.07;;;3.73;;
10902;SDS011;5504;47.312;11.060;2024-02-23T10:12:56;11.87;;;10.77;;
10902;SDS011;5504;47.312;11.060;2024-02-23T10:15:23;7.50;;;6.70;;
10902;SDS011;5504;47.312;11.060;2024-02-23T10:17:49;3.23;;;2.93;;
10902;SDS011;5504;47.312;11.060;2024-02-23T10:20:14;4.30;;;3.90;;
10902;SDS011;5504;47.312;11.060;2024-02-23T10:22:40;3.30;;;3.00;;
10902;SDS011;5504;47.312;11.060;2024-02-23T10:25:06;4.70;;;3.80;;
10902;SDS011;5504;47.312;11.060;2024-02-23T10:27:32;3.70;;;3.40;;
10902;SDS011;5504;47.312;11.060;2024-02-23T10:29:58;4.10;;;3.70;;
10902;SDS011;5504;47.312;11.060;2024-02-23T10:32:24;8.20;;;6.57;;
10902;SDS011;5504;47.312;11.060;2024-02-23T10:34:54;5.60;;;4.70;;
10902;SDS011;5504;47.312;11.060;2024-02-23T10:37:24;3.83;;;3.40;;
10902;SDS011;5504;47.312;11.060;2024-02-23T10:39:53;4.77;;;4.17;;
10902;SDS011;5504;47.312;11.060;2024-02-23T10:42:22;5.93;;;4.13;;
10902;SDS011;5504;47.312;11.060;2024-02-23T10:44:50;5.10;;;4.10;;
10902;SDS011;5504;47.312;11.060;2024-02-23T10:47:17;5.00;;;4.30;;
10902;SDS011;5504;47.312;11.060;2024-02-23T10:49:45;5.43;;;4.43;;
10902;SDS011;5504;47.312;11.060;2024-02-23T10:52:11;4.77;;;3.90;;
10902;SDS011;5504;47.312;11.060;2024-02-23T10:54:40;3.57;;;3.27;;
10902;SDS011;5504;47.312;11.060;2024-02-23T10:57:06;3.97;;;3.57;;
10902;SDS011;5504;47.312;11.060;2024-02-23T10:59:32;3.50;;;3.20;;
10902;SDS011;5504;47.312;11.060;2024-02-23T11:01:58;3.30;;;3.00;;
10902;SDS011;5504;47.312;11.060;2024-02-23T11:04:25;3.97;;;3.53;;
10902;SDS011;5504;47.312;11.060;2024-02-23T11:06:52;3.43;;;3.13;;
10902;SDS011;5504;47.312;11.060;2024-02-23T11:09:23;4.17;;;3.10;;
10902;SDS011;5504;47.312;11.060;2024-02-23T11:11:56;3.50;;;3.20;;
10902;SDS011;5504;47.312;11.060;2024-02-23T11:14:34;3.70;;;3.20;;
10902;SDS011;5504;47.312;11.060;2024-02-23T11:17:01;4.00;;;3.17;;
10902;SDS011;5504;47.312;11.060;2024-02-23T11:19:34;4.07;;;3.00;;
10902;SDS011;5504;47.312;11.060;2024-02-23T11:22:01;3.33;;;3.00;;
10902;SDS011;5504;47.312;11.060;2024-02-23T11:24:28;3.67;;;3.03;;
10902;SDS011;5504;47.312;11.060;2024-02-23T11:26:59;4.83;;;4.00;;
10902;SDS011;5504;47.312;11.060;2024-02-23T11:29:33;5.47;;;4.00;;
10902;SDS011;5504;47.312;11.060;2024-02-23T11:31:59;4.77;;;3.83;;
10902;SDS011;5504;47.312;11.060;2024-02-23T11:34:29;4.30;;;3.90;;
10902;SDS011;5504;47.312;11.060;2024-02-23T11:36:55;5.00;;;3.97;;
10902;SDS011;5504;47.312;11.060;2024-02-23T11:39:22;4.87;;;3.80;;
10902;SDS011;5504;47.312;11.060;2024-02-23T11:41:49;5.40;;;4.47;;
10902;SDS011;5504;47.312;11.060;2024-02-23T11:44:15;5.90;;;4.63;;
10902;SDS011;5504;47.312;11.060;2024-02-23T11:46:44;10.10;;;6.53;;
10902;SDS011;5504;47.312;11.060;2024-02-23T11:49:11;20.93;;;11.63;;
10902;SDS011;5504;47.312;11.060;2024-02-23T11:51:39;18.50;;;10.60;;
10902;SDS011;5504;47.312;11.060;2024-02-23T11:54:05;17.30;;;10.83;;
10902;SDS011;5504;47.312;11.060;2024-02-23T11:56:31;16.10;;;9.70;;
10902;SDS011;5504;47.312;11.060;2024-02-23T11:58:57;10.23;;;7.97;;
10902;SDS011;5504;47.312;11.060;2024-02-23T12:01:23;12.73;;;7.80;;
10902;SDS011;5504;47.312;11.060;2024-02-23T12:03:49;15.33;;;9.23;;
10902;SDS011;5504;47.312;11.060;2024-02-23T12:06:15;12.97;;;8.97;;
10902;SDS011;5504;47.312;11.060;2024-02-23T12:08:42;11.60;;;8.67;;
10902;SDS011;5504;47.312;11.060;2024-02-23T12:11:09;8.83;;;6.30;;
10902;SDS011;5504;47.312;11.060;2024-02-23T12:13:36;7.33;;;4.90;;
10902;SDS011;5504;47.312;11.060;2024-02-23T12:16:02;2.90;;;2.60;;
10902;SDS011;5504;47.312;11.060;2024-02-23T12:18:28;2.70;;;2.40;;
10902;SDS011;5504;47.312;11.060;2024-02-23T12:21:06;2.37;;;1.80;;
10902;SDS011;5504;47.312;11.060;2024-02-23T12:26:05;2.77;;;1.90;;
10902;SDS011;5504;47.312;11.060;2024-02-23T12:28:31;2.53;;;1.50;;
10902;SDS011;5504;47.312;11.060;2024-02-23T12:31:01;1.50;;;1.40;;
10902;SDS011;5504;47.312;11.060;2024-02-23T12:33:28;1.70;;;1.60;;
10902;SDS011;5504;47.312;11.060;2024-02-23T12:36:00;1.60;;;1.20;;
10902;SDS011;5504;47.312;11.060;2024-02-23T12:38:27;1.70;;;1.60;;
10902;SDS011;5504;47.312;11.060;2024-02-23T12:40:53;1.33;;;1.23;;
10902;SDS011;5504;47.312;11.060;2024-02-23T12:43:20;1.60;;;1.50;;
10902;SDS011;5504;47.312;11.060;2024-02-23T12:45:52;1.30;;;1.20;;
10902;SDS011;5504;47.312;11.060;2024-02-23T12:48:19;1.50;;;1.40;;
10902;SDS011;5504;47.312;11.060;2024-02-23T12:50:46;1.60;;;1.50;;
10902;SDS011;5504;47.312;11.060;2024-02-23T12:53:32;1.50;;;1.40;;
10902;SDS011;5504;47.312;11.060;2024-02-23T12:58:29;1.70;;;1.60;;
10902;SDS011;5504;47.312;11.060;2024-02-23T13:00:56;2.20;;;1.53;;
10902;SDS011;5504;47.312;11.060;2024-02-23T13:03:23;1.70;;;1.60;;
10902;SDS011;5504;47.312;11.060;2024-02-23T13:05:50;2.97;;;2.20;;
10902;SDS011;5504;47.312;11.060;2024-02-23T13:08:16;4.90;;;3.53;;
10902;SDS011;5504;47.312;11.060;2024-02-23T13:10:43;3.80;;;3.40;;
10902;SDS011;5504;47.312;11.060;2024-02-23T13:13:09;3.30;;;2.97;;
10902;SDS011;5504;47.312;11.060;2024-02-23T13:15:34;4.40;;;4.00;;
10902;SDS011;5504;47.312;11.060;2024-02-23T13:18:02;4.90;;;4.40;;
10902;SDS011;5504;47.312;11.060;2024-02-23T13:20:29;6.63;;;5.50;;
10902;SDS011;5504;47.312;11.060;2024-02-23T13:22:55;5.77;;;5.10;;
10902;SDS011;5504;47.312;11.060;2024-02-23T13:25:21;6.20;;;5.57;;
10902;SDS011;5504;47.312;11.060;2024-02-23T13:27:47;6.40;;;5.77;;
10902;SDS011;5504;47.312;11.060;2024-02-23T13:30:12;8.47;;;7.57;;
10902;SDS011;5504;47.312;11.060;2024-02-23T13:32:38;8.43;;;7.60;;
10902;SDS011;5504;47.312;11.060;2024-02-23T13:35:04;11.83;;;9.33;;
10902;SDS011;5504;47.312;11.060;2024-02-23T13:37:31;8.20;;;7.30;;
10902;SDS011;5504;47.312;11.060;2024-02-23T13:39:57;8.73;;;7.50;;
10902;SDS011;5504;47.312;11.060;2024-02-23T13:42:23;9.20;;;8.20;;
10902;SDS011;5504;47.312;11.060;2024-02-23T13:44:49;9.10;;;8.00;;
10902;SDS011;5504;47.312;11.060;2024-02-23T13:47:14;9.17;;;8.00;;
10902;SDS011;5504;47.312;11.060;2024-02-23T13:49:40;8.00;;;7.03;;
10902;SDS011;5504;47.312;11.060;2024-02-23T13:52:06;9.17;;;8.27;;
10902;SDS011;5504;47.312;11.060;2024-02-23T13:54:32;10.40;;;7.77;;
10902;SDS011;5504;47.312;11.060;2024-02-23T13:56:58;9.83;;;8.53;;
10902;SDS011;5504;47.312;11.060;2024-02-23T13:59:23;9.77;;;8.13;;
10902;SDS011;5504;47.312;11.060;2024-02-23T14:01:49;9.17;;;7.50;;
10902;SDS011;5504;47.312;11.060;2024-02-23T14:04:15;7.23;;;6.53;;
10902;SDS011;5504;47.312;11.060;2024-02-23T14:06:42;7.77;;;6.97;;
10902;SDS011;5504;47.312;11.060;2024-02-23T14:09:09;7.60;;;6.63;;
10902;SDS011;5504;47.312;11.060;2024-02-23T14:11:35;9.67;;;8.47;;
10902;SDS011;5504;47.312;11.060;2024-02-23T14:14:01;14.17;;;12.13;;
10902;SDS011;5504;47.312;11.060;2024-02-23T14:16:28;9.10;;;8.20;;
10902;SDS011;5504;47.312;11.060;2024-02-23T14:18:54;11.57;;;10.43;;
10902;SDS011;5504;47.312;11.060;2024-02-23T14:21:20;9.73;;;8.73;;
10902;SDS011;5504;47.312;11.060;2024-02-23T14:23:47;10.33;;;8.77;;
10902;SDS011;5504;47.312;11.060;2024-02-23T14:26:13;10.10;;;8.60;;
10902;SDS011;5504;47.312;11.060;2024-02-23T14:28:39;9.93;;;8.13;;
10902;SDS011;5504;47.312;11.060;2024-02-23T14:31:06;10.83;;;9.73;;
10902;SDS011;5504;47.312;11.060;2024-02-23T14:33:32;15.13;;;11.43;;
10902;SDS011;5504;47.312;11.060;2024-02-23T14:35:57;17.73;;;13.17;;
10902;SDS011;5504;47.312;11.060;2024-02-23T14:38:23;16.70;;;12.60;;
10902;SDS011;5504;47.312;11.060;2024-02-23T14:40:49;25.17;;;19.53;;
10902;SDS011;5504;47.312;11.060;2024-02-23T14:43:15;16.47;;;14.20;;
10902;SDS011;5504;47.312;11.060;2024-02-23T14:45:41;16.37;;;14.00;;